Aviation Digital Data Service (ADDS)

Output produced by METARs form (1505 UTC 24 September 2021)
found at http://www.aviationweather.gov/metar/data/
 
Forecast for: CYKA (KAMLOOPS AIRPORT, BC, CA)
Text: TAF CYKA 241238Z 2413/2501 08006KT P6SM SKC
Forecast period: 1300 to 1500 UTC 24 September 2021
Forecast type: FROM: standard forecast or significant change
Winds: from the E (80 degrees) at 7 MPH (6 knots; 3.1 m/s)
Visibility: 6 or more miles (10+ km)
Clouds: clear skies
Weather: no significant weather forecast for this period
Text: FM241500 09008KT P6SM SKC RMK NXT FCST BY 241900Z
Forecast period: 1500 UTC 24 September 2021 to 0100 UTC 25 September 2021
Forecast type: FROM: standard forecast or significant change
Winds: from the E (90 degrees) at 9 MPH (8 knots; 4.1 m/s)
Visibility: 6 or more miles (10+ km)
Clouds: clear skies
Weather: no significant weather forecast for this period